Time;durP1;ratioP1;P1;durP2;ratioP2;P2;SDS_P1;SDS_P2;PMS_P1;PMS_P2;Temp;Humidity;BMP_temperature;BMP_pressure;BME280_temperature;BME280_humidity;BME280_pressure;Samples;Min_cycle;Max_cycle;Signal;HPM_P1;HPM_P2
2022/01/10 00:02:10;;;;;;;;;9.50;9.00;;;;;20.91;37.14;100650.25;5068777;28;51200;-46
2022/01/10 00:04:35;;;;;;;;;15.00;12.25;;;;;20.89;37.16;100656.00;5069666;28;51238;-47
2022/01/10 00:07:01;;;;;;;;;12.50;10.50;;;;;20.87;37.06;100665.56;5062190;28;51199;-46
2022/01/10 00:09:26;;;;;;;;;11.00;9.50;;;;;20.85;36.86;100662.22;5063031;28;51134;-47
2022/01/10 00:11:51;;;;;;;;;11.50;10.00;;;;;20.83;36.69;100667.06;5066882;28;51121;-47
2022/01/10 00:14:17;;;;;;;;;12.00;11.00;;;;;20.80;36.98;100668.38;5064980;28;50888;-44
2022/01/10 00:16:42;;;;;;;;;14.25;12.00;;;;;20.78;37.02;100669.69;5065188;28;51146;-47
2022/01/10 00:19:07;;;;;;;;;11.00;11.00;;;;;20.76;37.00;100678.19;5065915;28;51106;-44
2022/01/10 00:21:33;;;;;;;;;13.50;12.25;;;;;20.73;36.96;100679.47;5065666;28;51323;-43
2022/01/10 00:23:58;;;;;;;;;14.00;13.50;;;;;20.72;37.11;100679.69;5065894;28;50977;-48
2022/01/10 00:26:24;;;;;;;;;11.25;11.00;;;;;20.70;37.08;100687.34;5063005;27;51107;-48
2022/01/10 00:28:51;;;;;;;;;12.75;12.75;;;;;20.68;37.03;100693.06;5066743;28;50978;-46
2022/01/10 00:31:16;;;;;;;;;9.75;9.75;;;;;20.65;37.32;100693.53;5064898;28;51122;-48
2022/01/10 00:33:42;;;;;;;;;15.00;14.50;;;;;20.64;37.40;100696.53;5064818;28;51309;-44
2022/01/10 00:36:08;;;;;;;;;12.25;12.25;;;;;20.62;37.35;100707.72;5068233;28;51117;-47
2022/01/10 00:38:33;;;;;;;;;16.25;12.00;;;;;20.60;37.48;100707.13;5065713;28;51098;-46
2022/01/10 00:41:00;;;;;;;;;13.50;12.00;;;;;20.58;37.06;100706.50;5068450;28;51257;-47
2022/01/10 00:43:34;;;;;;;;;15.50;12.75;;;;;20.58;37.28;100713.94;5065109;28;51058;-47
2022/01/10 00:46:01;;;;;;;;;11.75;10.75;;;;;20.55;37.19;100712.47;5071423;28;51809;-46
2022/01/10 00:48:26;;;;;;;;;18.00;14.50;;;;;20.53;37.36;100716.50;5071055;28;51148;-49
2022/01/10 00:50:52;;;;;;;;;13.50;11.75;;;;;20.53;37.09;100720.13;5064438;28;51091;-44
2022/01/10 00:53:18;;;;;;;;;13.00;13.00;;;;;20.52;37.12;100717.56;5064895;28;50980;-44
2022/01/10 00:55:43;;;;;;;;;12.50;10.75;;;;;20.50;37.19;100716.97;5071264;28;51011;-48
2022/01/10 00:58:08;;;;;;;;;15.00;13.00;;;;;20.47;37.16;100723.75;5065076;28;51001;-46
2022/01/10 01:00:34;;;;;;;;;14.00;14.00;;;;;20.45;37.19;100721.25;5066966;28;51362;-45
2022/01/10 01:02:59;;;;;;;;;15.75;15.00;;;;;20.44;37.59;100721.47;5068019;28;50999;-47
2022/01/10 01:05:26;;;;;;;;;12.75;11.25;;;;;20.43;37.22;100720.63;5068746;28;51139;-47
2022/01/10 01:07:52;;;;;;;;;13.50;12.25;;;;;20.41;37.36;100724.63;5065971;28;51273;-46
2022/01/10 01:15:26;;;;;;;;;13.25;11.75;;;;;20.37;37.33;100750.91;5065490;28;51808;-48
2022/01/10 01:25:49;;;;;;;;;14.25;13.50;;;;;20.31;37.34;100762.78;5065282;27;51139;-44
2022/01/10 01:28:15;;;;;;;;;1.00;1.00;;;;;20.31;37.37;100771.88;5077732;27;51056;-46
2022/01/10 01:30:42;;;;;;;;;12.75;12.50;;;;;20.30;37.52;100774.88;5062267;28;51475;-45
2022/01/10 01:33:08;;;;;;;;;15.00;15.00;;;;;20.29;37.39;100781.44;5067543;28;50967;-45
2022/01/10 01:35:35;;;;;;;;;13.25;12.50;;;;;20.27;37.30;100784.41;5068659;28;52718;-44
2022/01/10 01:38:01;;;;;;;;;14.75;14.00;;;;;20.27;37.66;100791.81;5059197;28;51565;-44
2022/01/10 01:40:29;;;;;;;;;11.25;11.25;;;;;20.24;37.57;100795.88;5072061;28;51256;-45
2022/01/10 01:42:55;;;;;;;;;15.25;12.00;;;;;20.24;37.38;100800.53;5068961;28;51410;-44
2022/01/10 01:45:35;;;;;;;;;12.75;12.50;;;;;20.22;37.54;100813.63;5058556;28;51092;-47
2022/01/10 01:48:01;;;;;;;;;15.50;14.75;;;;;20.22;37.67;100816.38;5069367;28;51610;-50
2022/01/10 01:50:26;;;;;;;;;13.00;12.25;;;;;20.19;37.76;100815.75;5062817;28;51292;-49
2022/01/10 01:52:51;;;;;;;;;15.75;15.75;;;;;20.19;37.55;100821.25;5065313;27;51149;-47
2022/01/10 01:55:17;;;;;;;;;15.25;14.25;;;;;20.18;37.57;100818.75;5063711;28;51702;-47
2022/01/10 01:57:42;;;;;;;;;13.75;13.75;;;;;20.17;37.61;100823.41;5062373;28;51137;-46
2022/01/10 02:00:08;;;;;;;;;11.50;11.50;;;;;20.15;37.52;100825.53;5064654;28;51334;-47
2022/01/10 02:02:34;;;;;;;;;13.00;11.50;;;;;20.14;37.63;100821.09;5068375;28;51457;-44
2022/01/10 02:04:59;;;;;;;;;12.00;11.00;;;;;20.13;37.51;100821.31;5059877;28;51880;-46
2022/01/10 02:07:24;;;;;;;;;16.50;12.75;;;;;20.13;37.93;100833.16;5069054;28;51075;-44
2022/01/10 02:09:50;;;;;;;;;14.50;14.25;;;;;20.11;37.29;100828.94;5069861;28;51153;-44
2022/01/10 02:12:15;;;;;;;;;12.75;10.75;;;;;20.10;37.69;100835.50;5074061;28;51333;-45
2022/01/10 02:14:46;;;;;;;;;11.75;11.75;;;;;20.10;37.49;100841.00;5060848;28;50994;-44
2022/01/10 02:17:13;;;;;;;;;16.25;14.25;;;;;20.09;37.78;100840.16;5068997;28;51114;-44
2022/01/10 02:19:39;;;;;;;;;15.50;15.00;;;;;20.07;37.57;100847.78;5070950;28;51172;-47
2022/01/10 02:22:04;;;;;;;;;14.25;13.25;;;;;20.07;37.48;100844.19;5073261;28;51155;-44
2022/01/10 02:24:30;;;;;;;;;17.00;14.50;;;;;20.05;37.95;100841.66;5067058;28;51194;-44
2022/01/10 02:26:56;;;;;;;;;14.25;12.25;;;;;20.06;38.12;100848.84;5065127;27;51203;-46
2022/01/10 02:29:21;;;;;;;;;14.50;13.25;;;;;20.06;37.99;100846.09;5064892;28;51045;-46
2022/01/10 02:31:47;;;;;;;;;14.75;12.50;;;;;20.06;37.94;100843.34;5074808;28;51479;-45
2022/01/10 02:34:18;;;;;;;;;13.25;12.75;;;;;20.06;37.72;100846.09;5067471;27;51395;-44
2022/01/10 02:36:43;;;;;;;;;17.50;13.75;;;;;20.05;37.89;100846.31;5072476;28;51022;-44
2022/01/10 02:39:10;;;;;;;;;14.00;12.00;;;;;20.03;37.90;100848.47;5066308;28;51324;-48
2022/01/10 02:41:39;;;;;;;;;16.00;12.25;;;;;20.02;38.08;100844.88;5066700;28;51063;-44
2022/01/10 02:44:09;;;;;;;;;14.00;12.00;;;;;19.99;37.76;100853.53;5074296;28;51896;-45
2022/01/10 02:46:36;;;;;;;;;16.25;14.25;;;;;20.00;38.00;100849.72;5069206;28;51362;-45
2022/01/10 02:49:22;;;;;;;;;15.75;12.00;;;;;19.99;37.71;100860.94;5069464;28;51175;-47
2022/01/10 02:51:47;;;;;;;;;15.00;14.50;;;;;19.97;38.07;100858.41;5068472;28;50978;-47
2022/01/10 02:54:14;;;;;;;;;11.00;11.00;;;;;19.96;37.53;100867.72;5064887;28;51716;-47
2022/01/10 02:56:51;;;;;;;;;16.25;13.50;;;;;19.96;37.78;100867.72;5060010;28;51377;-46
2022/01/10 02:59:17;;;;;;;;;14.25;13.00;;;;;19.95;37.64;100878.94;5068873;28;51064;-46
2022/01/10 03:01:43;;;;;;;;;14.00;12.50;;;;;19.93;37.63;100876.41;5074600;28;51114;-49
2022/01/10 03:04:09;;;;;;;;;14.50;12.75;;;;;19.94;37.65;100893.75;5065504;28;50992;-45
2022/01/10 03:06:35;;;;;;;;;14.00;13.00;;;;;19.92;37.75;100890.38;5074382;28;51007;-47
2022/01/10 03:09:05;;;;;;;;;15.25;14.25;;;;;19.92;37.73;100893.13;5063386;28;51107;-47
2022/01/10 03:11:35;;;;;;;;;14.25;12.75;;;;;19.91;37.58;100896.94;5069874;28;51285;-45
2022/01/10 03:14:01;;;;;;;;;13.75;12.00;;;;;19.89;37.81;100897.13;5068424;28;51388;-45
2022/01/10 03:16:27;;;;;;;;;14.00;11.25;;;;;19.87;37.81;100900.09;5064670;28;51778;-45
2022/01/10 03:18:52;;;;;;;;;4.00;2.00;;;;;19.87;37.70;100902.84;5067254;28;51285;-46
2022/01/10 03:21:20;;;;;;;;;13.25;10.75;;;;;19.87;37.81;100904.75;5070856;28;50993;-47
2022/01/10 03:23:48;;;;;;;;;11.25;11.25;;;;;19.85;37.76;100902.22;5068433;28;52200;-45
2022/01/10 03:26:14;;;;;;;;;14.75;13.00;;;;;19.84;37.69;100914.28;5067795;27;51170;-47
2022/01/10 03:28:39;;;;;;;;;13.25;13.25;;;;;19.84;38.00;100921.69;5066209;28;51137;-47
2022/01/10 03:31:04;;;;;;;;;15.25;13.75;;;;;19.82;37.97;100921.06;5069269;28;51029;-47
2022/01/10 03:33:30;;;;;;;;;14.75;14.75;;;;;19.81;37.88;100914.72;5064933;28;51683;-45
2022/01/10 03:35:55;;;;;;;;;13.50;13.00;;;;;19.79;37.94;100919.59;5065314;28;51161;-45
2022/01/10 03:38:21;;;;;;;;;13.00;13.00;;;;;19.80;37.98;100920.44;5070520;28;51105;-43
2022/01/10 03:40:46;;;;;;;;;17.75;16.75;;;;;19.79;37.75;100929.72;5067405;28;51070;-43
2022/01/10 03:43:12;;;;;;;;;12.50;12.50;;;;;19.78;38.10;100928.88;5069750;28;52523;-45
2022/01/10 03:45:37;;;;;;;;;16.50;13.00;;;;;19.78;37.93;100922.53;5068219;28;50947;-44
2022/01/10 03:48:03;;;;;;;;;12.00;12.00;;;;;19.78;37.97;100936.28;5067360;28;51117;-44
2022/01/10 03:50:28;;;;;;;;;13.25;13.25;;;;;19.75;37.90;100943.06;5065512;28;51109;-44
2022/01/10 03:52:54;;;;;;;;;14.75;14.50;;;;;19.75;38.01;100945.81;5066904;28;51867;-44
2022/01/10 03:55:19;;;;;;;;;19.00;17.00;;;;;19.74;37.81;100940.53;5068910;28;51070;-49
2022/01/10 03:57:44;;;;;;;;;16.75;15.50;;;;;19.74;38.02;100951.53;5066934;28;51131;-48
2022/01/10 04:00:10;;;;;;;;;15.00;15.00;;;;;19.73;38.17;100945.19;5064516;28;51140;-49
2022/01/10 04:02:38;;;;;;;;;14.50;14.50;;;;;19.72;37.85;100948.16;5067477;28;51073;-47
2022/01/10 04:05:03;;;;;;;;;15.75;14.50;;;;;19.71;38.03;100955.56;5065194;28;51103;-48
2022/01/10 04:07:29;;;;;;;;;18.75;16.50;;;;;19.70;37.84;100951.13;5068746;28;51085;-48
2022/01/10 04:09:54;;;;;;;;;18.25;16.00;;;;;19.70;37.75;100961.28;5068125;28;51369;-50
2022/01/10 04:12:21;;;;;;;;;15.50;15.00;;;;;19.70;38.02;100969.53;5062752;28;51837;-51
2022/01/10 04:14:46;;;;;;;;;18.50;16.75;;;;;19.69;38.05;100965.06;5063139;28;51655;-47
2022/01/10 04:17:13;;;;;;;;;18.50;16.50;;;;;19.70;38.48;100969.53;5065464;28;51388;-48
2022/01/10 04:19:38;;;;;;;;;15.50;14.00;;;;;19.68;37.89;100974.38;5067782;28;51506;-48
2022/01/10 04:22:04;;;;;;;;;17.25;13.75;;;;;19.68;38.05;100988.09;5063431;28;51887;-49
2022/01/10 04:24:29;;;;;;;;;13.50;13.50;;;;;19.66;37.74;100982.00;5062873;28;51179;-47
2022/01/10 04:26:55;;;;;;;;;18.00;15.00;;;;;19.66;38.11;100984.72;5076343;27;51203;-50
2022/01/10 04:29:20;;;;;;;;;17.25;15.75;;;;;19.64;37.92;100989.59;5066320;28;51150;-48
2022/01/10 04:31:46;;;;;;;;;15.25;14.25;;;;;19.63;37.96;100986.00;5061688;28;51094;-46
2022/01/10 04:34:12;;;;;;;;;14.50;14.25;;;;;19.62;38.05;100986.22;5065101;28;51034;-48
2022/01/10 04:36:37;;;;;;;;;16.00;14.50;;;;;19.62;38.29;100994.47;5075076;28;51332;-49
2022/01/10 04:39:03;;;;;;;;;14.00;13.75;;;;;19.60;38.16;101001.03;5072985;28;51546;-46
2022/01/10 04:41:28;;;;;;;;;17.75;16.00;;;;;19.60;38.14;101002.94;5064809;28;51042;-45
2022/01/10 04:43:54;;;;;;;;;15.00;12.75;;;;;19.59;37.94;101006.72;5058675;28;51154;-48
2022/01/10 04:46:19;;;;;;;;;16.50;16.50;;;;;19.58;37.88;101019.63;5062712;28;51038;-49
2022/01/10 04:48:44;;;;;;;;;16.50;15.25;;;;;19.57;38.08;101026.16;5067579;28;51259;-47
2022/01/10 04:51:12;;;;;;;;;14.00;11.25;;;;;19.56;38.04;101024.47;5065111;28;51967;-46
2022/01/10 04:53:39;;;;;;;;;15.50;14.00;;;;;19.56;37.93;101029.97;5065213;28;51101;-50
2022/01/10 04:56:04;;;;;;;;;16.00;14.00;;;;;19.55;38.12;101032.91;5066645;28;51116;-46
2022/01/10 04:58:30;;;;;;;;;14.75;13.50;;;;;19.54;37.83;101034.81;5066026;28;51459;-47
2022/01/10 05:00:55;;;;;;;;;7.25;6.00;;;;;19.55;38.29;101041.16;5064098;28;51533;-49
2022/01/10 05:03:22;;;;;;;;;16.50;15.50;;;;;19.54;38.12;101050.44;5059745;27;51125;-50
2022/01/10 05:05:53;;;;;;;;;15.25;14.50;;;;;19.53;38.65;101057.84;5059680;28;51246;-50
2022/01/10 05:08:20;;;;;;;;;23.25;21.25;;;;;19.55;38.08;101063.13;5070216;28;51231;-46
2022/01/10 05:10:45;;;;;;;;;26.75;25.00;;;;;19.54;37.45;101067.78;5059876;28;51558;-48
2022/01/10 05:13:11;;;;;;;;;26.50;26.25;;;;;19.52;37.38;101072.66;5065197;28;51078;-49
2022/01/10 05:15:36;;;;;;;;;30.00;27.50;;;;;19.49;37.02;101069.50;5060703;28;51171;-49
2022/01/10 05:18:02;;;;;;;;;29.50;28.25;;;;;19.47;37.27;101068.81;5059053;28;51145;-46
2022/01/10 05:20:27;;;;;;;;;29.50;27.00;;;;;19.44;36.97;101074.75;5059649;28;51742;-47
2022/01/10 05:22:53;;;;;;;;;32.25;28.00;;;;;19.41;36.80;101077.94;5063812;28;51061;-49
2022/01/10 05:25:18;;;;;;;;;35.75;34.25;;;;;19.37;36.56;101077.47;5064170;27;51641;-45
2022/01/10 05:27:44;;;;;;;;;35.00;29.25;;;;;19.32;36.54;101080.88;5067950;27;51045;-43
2022/01/10 05:30:10;;;;;;;;;31.00;26.50;;;;;19.29;36.86;101077.69;5062486;28;51194;-44
2022/01/10 05:32:35;;;;;;;;;25.25;21.00;;;;;19.29;36.54;101077.69;5057010;28;51147;-45
2022/01/10 05:35:00;;;;;;;;;27.00;26.25;;;;;19.32;36.68;101085.50;5063692;27;51451;-43
2022/01/10 05:37:26;;;;;;;;;23.50;19.25;;;;;19.40;36.88;101095.47;5072928;27;51360;-47
2022/01/10 05:39:51;;;;;;;;;21.00;20.75;;;;;19.47;37.07;101088.06;5059560;28;52004;-47
2022/01/10 05:42:19;;;;;;;;;20.00;19.75;;;;;19.56;36.91;101097.81;5067754;28;51131;-47
2022/01/10 05:44:45;;;;;;;;;20.50;18.00;;;;;19.64;37.33;101096.78;5070280;27;51235;-45
2022/01/10 05:47:10;;;;;;;;;15.75;15.75;;;;;19.72;37.40;101104.81;5065914;28;51239;-45
2022/01/10 05:49:37;;;;;;;;;19.25;18.25;;;;;19.79;37.13;101106.50;5063235;28;51109;-44
2022/01/10 05:52:03;;;;;;;;;22.00;16.75;;;;;19.87;37.02;101122.78;5063681;28;51124;-45
2022/01/10 05:54:28;;;;;;;;;18.00;15.50;;;;;19.95;37.07;101124.50;5068517;28;51145;-44
2022/01/10 05:56:54;;;;;;;;;18.25;17.00;;;;;20.03;36.98;101128.94;5066193;27;51465;-48
2022/01/10 05:59:20;;;;;;;;;15.50;14.50;;;;;20.10;37.18;101127.00;5070273;28;51984;-44
2022/01/10 06:01:45;;;;;;;;;14.25;14.25;;;;;20.17;37.51;101141.59;5058163;28;51079;-46
2022/01/10 06:04:11;;;;;;;;;17.00;14.75;;;;;20.24;37.17;101142.47;5055124;28;51022;-47
2022/01/10 06:06:36;;;;;;;;;14.00;12.75;;;;;20.32;37.28;101146.88;5063729;28;51121;-44
2022/01/10 06:09:02;;;;;;;;;12.00;12.00;;;;;20.38;37.22;101160.63;5061739;28;51070;-46
2022/01/10 06:11:27;;;;;;;;;14.75;14.50;;;;;20.45;37.52;101156.00;5064114;28;51456;-47
2022/01/10 06:13:53;;;;;;;;;14.75;13.25;;;;;20.51;37.07;101164.44;5056644;28;51166;-46
2022/01/10 06:16:18;;;;;;;;;16.00;13.50;;;;;20.57;37.42;101177.34;5063698;28;51020;-45
2022/01/10 06:18:43;;;;;;;;;16.50;13.75;;;;;20.63;37.23;101188.31;5062828;28;51748;-46
2022/01/10 06:21:09;;;;;;;;;17.75;13.50;;;;;20.67;37.12;101197.88;5058592;28;51109;-47
2022/01/10 06:23:34;;;;;;;;;16.00;15.50;;;;;20.72;36.88;101191.69;5069592;28;51100;-46
2022/01/10 06:26:00;;;;;;;;;16.50;13.25;;;;;20.79;36.97;101194.44;5066522;27;50968;-45
2022/01/10 06:28:25;;;;;;;;;12.50;10.25;;;;;20.84;36.87;101208.41;5060947;27;51018;-45
2022/01/10 06:30:50;;;;;;;;;16.25;14.00;;;;;20.89;36.50;101208.63;5063128;28;51029;-46
2022/01/10 06:33:16;;;;;;;;;13.25;11.75;;;;;20.94;36.46;101208.78;5061723;28;51077;-47
2022/01/10 06:35:41;;;;;;;;;13.75;10.25;;;;;20.99;36.78;101209.00;5065778;28;51558;-48
2022/01/10 06:38:07;;;;;;;;;14.25;11.50;;;;;21.03;36.29;101215.75;5063856;28;51085;-43
2022/01/10 06:40:32;;;;;;;;;15.75;12.00;;;;;21.09;36.38;101222.31;5063226;28;51109;-43
2022/01/10 06:42:58;;;;;;;;;10.00;9.75;;;;;21.11;36.17;101221.03;5063130;28;50986;-42
2022/01/10 06:45:23;;;;;;;;;15.50;13.75;;;;;21.15;36.21;101236.06;5064495;28;51032;-42
2022/01/10 06:47:49;;;;;;;;;13.50;12.50;;;;;21.20;36.52;101241.78;5065862;28;51941;-45
2022/01/10 06:50:15;;;;;;;;;13.75;12.50;;;;;21.24;36.58;101251.28;5066194;28;51168;-44
2022/01/10 06:52:41;;;;;;;;;11.00;11.00;;;;;21.28;36.73;101251.75;5071189;28;51170;-41
2022/01/10 06:55:06;;;;;;;;;10.00;9.00;;;;;21.33;36.32;101260.19;5070212;28;51069;-41
2022/01/10 06:57:32;;;;;;;;;18.00;11.00;;;;;21.38;36.34;101260.41;5065984;28;52065;-44
2022/01/10 06:59:57;;;;;;;;;11.00;11.00;;;;;21.42;36.34;101271.81;5067094;28;51034;-42
2022/01/10 07:02:22;;;;;;;;;10.00;10.00;;;;;21.47;36.61;101285.81;5068623;28;51159;-47
2022/01/10 07:04:48;;;;;;;;;12.25;9.75;;;;;21.51;36.38;101289.81;5064423;28;51196;-45
2022/01/10 07:07:13;;;;;;;;;12.00;10.25;;;;;21.54;36.43;101303.16;5067354;28;51665;-48
2022/01/10 07:09:39;;;;;;;;;12.75;10.00;;;;;21.59;36.53;101314.38;5067149;28;51180;-42
2022/01/10 07:12:05;;;;;;;;;10.00;9.25;;;;;21.61;36.24;101324.13;5066319;28;51427;-44
2022/01/10 07:14:33;;;;;;;;;9.75;8.25;;;;;21.66;36.52;101328.13;5067045;28;51207;-43
2022/01/10 07:16:58;;;;;;;;;14.25;11.75;;;;;21.70;36.50;101332.16;5068521;28;51840;-45
2022/01/10 07:19:24;;;;;;;;;11.00;11.00;;;;;21.74;36.29;101341.66;5067433;28;51536;-46
2022/01/10 07:21:50;;;;;;;;;9.75;9.75;;;;;21.77;36.37;101347.56;5065809;28;51147;-44
2022/01/10 07:24:15;;;;;;;;;12.50;9.50;;;;;21.81;36.19;101345.25;5060175;28;51107;-42
2022/01/10 07:26:41;;;;;;;;;11.00;8.75;;;;;21.84;36.01;101353.06;5079685;27;51890;-44
2022/01/10 07:29:08;;;;;;;;;8.75;7.50;;;;;21.86;35.92;101356.44;5070148;28;51087;-44
2022/01/10 07:31:35;;;;;;;;;13.50;11.50;;;;;21.87;36.20;101369.16;5068839;27;51054;-42
2022/01/10 07:34:00;;;;;;;;;12.00;10.50;;;;;21.84;35.76;101372.38;5061715;28;51203;-45
2022/01/10 07:36:25;;;;;;;;;11.00;10.00;;;;;21.77;35.55;101369.63;5067083;27;51644;-47
2022/01/10 07:38:51;;;;;;;;;13.75;10.50;;;;;21.71;35.78;101373.28;5067996;28;51074;-42
2022/01/10 07:41:16;;;;;;;;;14.25;11.25;;;;;21.65;35.61;101398.94;5065663;28;50987;-44
2022/01/10 07:43:42;;;;;;;;;9.00;9.00;;;;;21.59;35.75;101410.88;5066477;28;51402;-45
2022/01/10 07:46:08;;;;;;;;;13.75;11.25;;;;;21.51;35.95;101406.41;5068479;28;51139;-49
2022/01/10 07:48:36;;;;;;;;;12.00;9.50;;;;;21.43;35.80;101412.16;5068359;28;51056;-46
2022/01/10 07:51:03;;;;;;;;;14.50;8.25;;;;;21.36;35.72;101414.06;5067227;28;51022;-41
2022/01/10 07:53:28;;;;;;;;;10.50;10.50;;;;;21.30;36.11;101415.78;5062535;27;51118;-42
2022/01/10 07:55:53;;;;;;;;;9.25;8.25;;;;;21.23;36.11;101441.63;5069758;28;52028;-43
2022/01/10 07:58:19;;;;;;;;;11.00;10.00;;;;;21.16;36.11;101447.16;5064375;28;51310;-41
2022/01/10 08:00:45;;;;;;;;;10.00;9.50;;;;;21.10;36.13;101459.00;5065358;28;51160;-42
2022/01/10 08:03:10;;;;;;;;;11.50;11.50;;;;;21.05;36.24;101464.31;5066412;28;51370;-42
2022/01/10 08:05:35;;;;;;;;;14.00;11.25;;;;;20.99;36.03;101462.38;5067387;28;51115;-42
2022/01/10 08:08:01;;;;;;;;;10.50;9.25;;;;;20.93;36.28;101465.97;5065814;28;51085;-41
2022/01/10 08:10:27;;;;;;;;;11.25;9.75;;;;;20.89;36.49;101467.47;5067430;28;51285;-44
2022/01/10 08:12:53;;;;;;;;;11.25;10.00;;;;;20.84;36.17;101469.97;5066964;28;51037;-44
2022/01/10 08:15:19;;;;;;;;;10.75;9.50;;;;;20.79;35.98;101483.56;5065560;28;52033;-45
2022/01/10 08:17:46;;;;;;;;;10.50;10.00;;;;;20.74;36.42;101478.69;5061354;28;51347;-44
2022/01/10 08:20:12;;;;;;;;;11.25;8.50;;;;;20.70;36.37;101482.88;5062575;27;51032;-46
2022/01/10 08:22:38;;;;;;;;;10.00;9.00;;;;;20.67;36.19;101473.16;5058274;28;51366;-45
2022/01/10 08:25:04;;;;;;;;;11.00;10.50;;;;;20.62;36.22;101481.16;5064305;28;50903;-43
2022/01/10 08:27:29;;;;;;;;;8.25;8.25;;;;;20.59;36.48;101487.09;5074996;27;51326;-44
2022/01/10 08:29:54;;;;;;;;;8.00;8.00;;;;;20.56;36.69;101492.19;5067888;28;51251;-43
2022/01/10 08:32:20;;;;;;;;;8.75;7.00;;;;;20.52;36.76;101499.13;5072182;28;50922;-44
2022/01/10 08:34:45;;;;;;;;;7.25;7.00;;;;;20.49;36.68;101502.31;5063820;28;51812;-44
2022/01/10 08:37:11;;;;;;;;;7.75;6.00;;;;;20.44;36.19;101502.94;5068399;28;50949;-42
2022/01/10 08:39:37;;;;;;;;;9.75;8.75;;;;;20.41;36.69;101517.06;5066281;28;51147;-42
2022/01/10 08:42:03;;;;;;;;;9.00;9.00;;;;;20.39;36.31;101521.94;5063763;27;51290;-42
2022/01/10 08:44:28;;;;;;;;;7.75;7.75;;;;;20.35;36.50;101521.50;5063335;28;51718;-47
2022/01/10 08:46:54;;;;;;;;;8.25;8.25;;;;;20.32;36.54;101529.28;5066089;28;51085;-46
2022/01/10 08:49:19;;;;;;;;;6.50;6.50;;;;;20.29;36.57;101535.22;5075779;27;51076;-46
2022/01/10 08:51:46;;;;;;;;;4.75;4.50;;;;;20.26;36.54;101524.63;5075114;28;51135;-46
2022/01/10 08:54:12;;;;;;;;;8.00;7.00;;;;;20.24;36.46;101530.34;5064129;28;51829;-46
2022/01/10 08:56:38;;;;;;;;;7.00;6.00;;;;;20.21;36.58;101546.38;5065791;27;50949;-45
2022/01/10 08:59:05;;;;;;;;;8.75;6.75;;;;;20.18;36.54;101561.41;5059859;28;51545;-44
2022/01/10 09:01:31;;;;;;;;;7.00;6.00;;;;;20.15;36.72;101557.16;5065230;28;51068;-44
2022/01/10 09:03:57;;;;;;;;;7.75;6.50;;;;;20.12;36.92;101570.47;5064603;28;51747;-43
2022/01/10 09:06:23;;;;;;;;;8.00;6.75;;;;;20.09;36.59;101568.97;5064722;27;51549;-43
2022/01/10 09:08:49;;;;;;;;;8.75;6.75;;;;;20.07;36.76;101576.56;5066166;28;51360;-44
2022/01/10 09:11:15;;;;;;;;;6.75;5.75;;;;;20.06;36.54;101574.03;5066712;28;51141;-42
2022/01/10 09:13:41;;;;;;;;;6.50;6.00;;;;;20.03;37.04;101582.69;5056536;28;51315;-47
2022/01/10 09:16:07;;;;;;;;;7.00;5.50;;;;;20.01;36.63;101591.16;5065335;28;52364;-45
2022/01/10 09:18:33;;;;;;;;;8.50;8.50;;;;;20.00;36.99;101594.06;5062719;28;51636;-45
2022/01/10 09:20:59;;;;;;;;;8.25;6.25;;;;;19.97;37.01;101587.09;5065197;28;51342;-44
2022/01/10 09:23:25;;;;;;;;;6.75;6.00;;;;;19.96;36.91;101584.53;5064601;28;51946;-45
2022/01/10 09:25:51;;;;;;;;;6.00;5.00;;;;;19.94;36.63;101592.16;5069520;27;51635;-43
2022/01/10 09:28:17;;;;;;;;;7.00;6.00;;;;;19.91;36.80;101590.66;5064258;27;51060;-43
2022/01/10 09:30:43;;;;;;;;;6.25;5.50;;;;;19.88;36.81;101600.13;5068268;28;51072;-42
2022/01/10 09:33:08;;;;;;;;;8.00;6.00;;;;;19.89;36.77;101603.72;5059456;28;51607;-42
2022/01/10 09:35:33;;;;;;;;;7.50;5.50;;;;;19.85;37.16;101611.53;5072059;28;51055;-47
2022/01/10 09:37:59;;;;;;;;;6.50;6.50;;;;;19.85;36.76;101618.94;5063150;28;51908;-44
2022/01/10 09:40:24;;;;;;;;;4.50;4.00;;;;;19.82;37.00;101616.59;5063635;28;51201;-41
2022/01/10 09:42:51;;;;;;;;;7.25;7.00;;;;;19.81;37.11;101620.41;5069404;28;52055;-44
2022/01/10 09:45:17;;;;;;;;;6.50;6.50;;;;;19.79;36.69;101625.22;5057211;28;51348;-42
2022/01/10 09:47:42;;;;;;;;;9.50;7.25;;;;;19.77;36.96;101630.91;5064441;28;51082;-45
2022/01/10 09:50:09;;;;;;;;;6.50;6.50;;;;;19.77;36.76;101627.31;5062433;28;51034;-46
2022/01/10 09:52:37;;;;;;;;;10.50;8.00;;;;;19.76;37.18;101633.88;5063769;28;51895;-44
2022/01/10 09:55:03;;;;;;;;;7.00;6.00;;;;;19.73;36.99;101643.38;5066000;28;51176;-41
2022/01/10 09:57:28;;;;;;;;;6.00;6.00;;;;;19.72;37.08;101649.06;5062580;28;51149;-45
2022/01/10 09:59:54;;;;;;;;;7.25;6.25;;;;;19.71;37.12;101647.38;5061688;28;51211;-46
2022/01/10 10:02:20;;;;;;;;;8.50;8.50;;;;;19.71;37.17;101652.88;5057961;28;52133;-44
2022/01/10 10:04:46;;;;;;;;;9.00;6.00;;;;;19.69;37.10;101649.44;5065138;28;51203;-44
2022/01/10 10:07:11;;;;;;;;;10.50;8.00;;;;;19.68;37.21;101661.50;5056202;28;51284;-42
2022/01/10 10:09:37;;;;;;;;;9.50;9.25;;;;;19.65;37.10;101672.91;5064292;28;51496;-42
2022/01/10 10:12:04;;;;;;;;;11.50;8.00;;;;;19.64;36.94;101671.19;5061348;28;51092;-45
2022/01/10 10:14:31;;;;;;;;;12.75;12.75;;;;;19.63;37.03;101673.09;5062287;28;51241;-42
2022/01/10 10:16:57;;;;;;;;;12.50;11.75;;;;;19.63;37.10;101672.25;5063323;28;51062;-41
2022/01/10 10:19:24;;;;;;;;;8.50;8.50;;;;;19.60;37.27;101666.09;5063699;27;51228;-42
2022/01/10 10:21:51;;;;;;;;;12.00;12.00;;;;;19.60;37.34;101676.25;5057170;28;51168;-42
2022/01/10 10:24:18;;;;;;;;;12.75;11.00;;;;;19.59;37.21;101677.25;5075294;28;50970;-41
2022/01/10 10:26:43;;;;;;;;;15.00;14.00;;;;;19.57;37.28;101682.97;5076442;27;51171;-43
2022/01/10 10:29:13;;;;;;;;;16.50;13.50;;;;;19.55;36.97;101681.44;5066862;28;51061;-44
2022/01/10 10:31:48;;;;;;;;;17.50;16.25;;;;;19.55;37.36;101686.94;5062768;28;51821;-44
2022/01/10 10:34:27;;;;;;;;;14.50;11.00;;;;;19.53;37.43;101687.13;5069024;28;51178;-47
2022/01/10 10:37:14;;;;;;;;;11.75;11.75;;;;;19.51;37.21;101689.22;5065947;28;51194;-42
2022/01/10 10:39:44;;;;;;;;;15.50;13.25;;;;;19.49;37.35;101696.81;5062182;28;50956;-42
2022/01/10 10:42:12;;;;;;;;;14.75;13.50;;;;;19.49;37.28;101694.06;5065596;28;51130;-42
2022/01/10 10:44:39;;;;;;;;;15.50;13.75;;;;;19.47;37.18;101696.13;5066752;28;51312;-46
2022/01/10 10:47:05;;;;;;;;;14.50;12.00;;;;;19.46;37.27;101697.19;5067181;28;50974;-42
2022/01/10 10:49:35;;;;;;;;;14.00;12.00;;;;;19.43;37.15;101697.59;5065389;28;51236;-43
2022/01/10 10:52:05;;;;;;;;;16.25;15.00;;;;;19.45;37.30;101708.38;5061051;27;51306;-40
2022/01/10 10:54:32;;;;;;;;;16.25;13.00;;;;;19.43;37.44;101704.97;5064947;28;50924;-43
2022/01/10 10:57:00;;;;;;;;;16.50;13.75;;;;;19.42;37.24;101709.63;5072471;28;51105;-44
2022/01/10 10:59:29;;;;;;;;;13.75;10.25;;;;;19.43;37.30;101715.97;5064591;28;51088;-41
2022/01/10 11:01:55;;;;;;;;;11.75;9.75;;;;;19.42;37.37;101714.28;5062828;28;51191;-44
2022/01/10 11:04:21;;;;;;;;;17.00;13.25;;;;;19.40;37.30;101711.72;5066396;28;51068;-43
2022/01/10 11:06:46;;;;;;;;;17.25;15.25;;;;;19.39;37.12;101717.41;5067932;28;51100;-41
2022/01/10 11:09:13;;;;;;;;;10.25;8.75;;;;;19.38;37.47;101724.78;5063120;28;51761;-41
2022/01/10 11:11:40;;;;;;;;;16.75;12.00;;;;;19.37;37.25;101716.72;5071653;28;53536;-45
2022/01/10 11:14:08;;;;;;;;;15.00;12.00;;;;;19.36;37.18;101720.53;5064072;28;51540;-46
2022/01/10 11:16:36;;;;;;;;;13.25;11.50;;;;;19.35;37.37;101714.19;5063914;28;50986;-45
2022/01/10 11:19:02;;;;;;;;;12.00;11.75;;;;;19.33;37.33;101714.38;5065937;28;51226;-45
2022/01/10 11:21:27;;;;;;;;;14.25;11.50;;;;;19.33;37.47;101728.13;5060333;28;51646;-47